Indian Rocks Beach, FL

3:14 AM EDT on March 27, 2015 (GMT -0400)
Saint Petersburg-Clearwater International | | Change Station
CLOSE
Current Station
Airport
Location: St. Petersburg Airport,
Elevation: 10 ft
Nearby Weather Stations

Elev 10 ft 27.91 °N, 82.69 °W | Updated 14 minutes ago

Rain
Rain
67 °F
Feels Like 67 °F
N
14
Wind Variable Wind from NW

Today
High -- | Low -- °F
--% Chance of Precip.
Yesterday
High -- | Low -- °F
Precip. -- in
7:27 AM 7:46 PM
Waxing Crescent, 50% visible
Pressure 29.93 in
Visibility 10.0 miles
Clouds Few 1500 ft
Mostly Cloudy 8000 ft
Overcast 11000 ft
Dew Point 65 °F
Humidity 93%
Rainfall 0.51 in
Snow Depth Not available.
UV 0 out of 12
Pollen 9.10 out of 12
Air Quality Not available.
Flu Activity Not available.
SPECI KPIE 270700Z AUTO 31012KT 10SM -RA FEW015 BKN080 OVC110 19/18 A2993 RMK AO2 LTG DSNT SE AND S P0000 T01940183

More Conditions Fewer Conditions

Pressure 29.93 in
Visibility 10.0 miles
Clouds Few 1500 ft
Mostly Cloudy 8000 ft
Overcast 11000 ft
Dew Point 65 °F
Humidity 93%
Rainfall 0.51 in
Snow Depth Not available.
UV 0 out of 12
Pollen 9.10 out of 12
Air Quality Not available.
Flu Activity Not available.
SPECI KPIE 270700Z AUTO 31012KT 10SM -RA FEW015 BKN080 OVC110 19/18 A2993 RMK AO2 LTG DSNT SE AND S P0000 T01940183

More Conditions Fewer Conditions

10-Day Weather Forecast

Almanac

Astronomy

Mar. 27, 2015 Rise Set
Actual Time
Civil Twilight
Nautical Twilight
Astronomical Twilight
Moon
Length of Visible Light
Length of Day
Tomorrow will be .
, % of the Moon is Illuminated

Today's Extremes

State Highs State Lows

Community

WunderPhotos

Upload Photos

1,808,701 photos uploaded!

WunderBlogs® & News

Nearby

Air Quality

  Air Quality AQ Index Pollutant
Not available.

Snow Depth

Station Depth Elevation

Earthquake Activity

City Distance Mag. Time & Date
Minimum magnitude displayed is 2.5.

Coastal Water Temperatures

Place Temperature

Stations

Nearby Weather Stations

Station Location Temp. Windchill Dew Point Humidity Wind Precip. Elev Updated Type